sensor_id;sensor_type;location;lat;lon;timestamp;temperature;humidity
45535;DHT22;35892;48.798;9.698;2022-07-30T00:01:58;17.00;99.90
45535;DHT22;35892;48.798;9.698;2022-07-30T00:04:25;17.00;99.90
45535;DHT22;35892;48.798;9.698;2022-07-30T00:06:56;16.90;99.90
45535;DHT22;35892;48.798;9.698;2022-07-30T00:09:23;16.90;99.90
45535;DHT22;35892;48.798;9.698;2022-07-30T00:11:50;16.90;99.90
45535;DHT22;35892;48.798;9.698;2022-07-30T00:14:22;16.80;99.90
45535;DHT22;35892;48.798;9.698;2022-07-30T00:16:52;16.80;99.90
45535;DHT22;35892;48.798;9.698;2022-07-30T00:19:21;16.80;99.90
45535;DHT22;35892;48.798;9.698;2022-07-30T00:21:54;16.70;99.90
45535;DHT22;35892;48.798;9.698;2022-07-30T00:24:21;16.70;99.90
45535;DHT22;35892;48.798;9.698;2022-07-30T00:26:48;16.60;99.90
45535;DHT22;35892;48.798;9.698;2022-07-30T00:29:17;16.60;99.90
45535;DHT22;35892;48.798;9.698;2022-07-30T00:31:46;16.60;99.90
45535;DHT22;35892;48.798;9.698;2022-07-30T00:34:13;16.60;99.90
45535;DHT22;35892;48.798;9.698;2022-07-30T00:36:40;16.60;99.90
45535;DHT22;35892;48.798;9.698;2022-07-30T00:39:09;16.70;99.90
45535;DHT22;35892;48.798;9.698;2022-07-30T00:41:54;16.60;99.90
45535;DHT22;35892;48.798;9.698;2022-07-30T00:44:21;16.50;99.90
45535;DHT22;35892;48.798;9.698;2022-07-30T00:46:48;16.50;99.90
45535;DHT22;35892;48.798;9.698;2022-07-30T00:49:14;16.50;99.90
45535;DHT22;35892;48.798;9.698;2022-07-30T00:51:42;16.50;99.90
45535;DHT22;35892;48.798;9.698;2022-07-30T00:54:08;16.50;99.90
45535;DHT22;35892;48.798;9.698;2022-07-30T00:56:38;16.50;99.90
45535;DHT22;35892;48.798;9.698;2022-07-30T00:59:07;16.50;99.90
45535;DHT22;35892;48.798;9.698;2022-07-30T01:01:36;16.40;99.90
45535;DHT22;35892;48.798;9.698;2022-07-30T01:04:04;16.30;99.90
45535;DHT22;35892;48.798;9.698;2022-07-30T01:06:42;16.30;99.90
45535;DHT22;35892;48.798;9.698;2022-07-30T01:09:08;16.30;99.90
45535;DHT22;35892;48.798;9.698;2022-07-30T01:11:41;16.30;99.90
45535;DHT22;35892;48.798;9.698;2022-07-30T01:14:10;16.30;99.90
45535;DHT22;35892;48.798;9.698;2022-07-30T01:16:40;16.40;99.90
45535;DHT22;35892;48.798;9.698;2022-07-30T01:19:21;16.40;99.90
45535;DHT22;35892;48.798;9.698;2022-07-30T01:27:46;16.60;99.90
45535;DHT22;35892;48.798;9.698;2022-07-30T01:30:18;16.70;99.90
45535;DHT22;35892;48.798;9.698;2022-07-30T01:32:46;16.60;99.90
45535;DHT22;35892;48.798;9.698;2022-07-30T01:35:19;16.50;99.90
45535;DHT22;35892;48.798;9.698;2022-07-30T01:37:48;16.40;99.90
45535;DHT22;35892;48.798;9.698;2022-07-30T01:40:22;16.40;99.90
45535;DHT22;35892;48.798;9.698;2022-07-30T01:42:51;16.40;99.90
45535;DHT22;35892;48.798;9.698;2022-07-30T01:45:23;16.30;99.90
45535;DHT22;35892;48.798;9.698;2022-07-30T01:47:54;16.30;99.90
45535;DHT22;35892;48.798;9.698;2022-07-30T01:50:24;16.20;99.90
45535;DHT22;35892;48.798;9.698;2022-07-30T01:52:53;16.20;99.90
45535;DHT22;35892;48.798;9.698;2022-07-30T01:55:35;16.20;99.90
45535;DHT22;35892;48.798;9.698;2022-07-30T01:58:04;16.10;99.90
45535;DHT22;35892;48.798;9.698;2022-07-30T02:00:35;16.20;99.90
45535;DHT22;35892;48.798;9.698;2022-07-30T02:03:05;16.20;99.90
45535;DHT22;35892;48.798;9.698;2022-07-30T02:05:35;16.30;99.90
45535;DHT22;35892;48.798;9.698;2022-07-30T02:10:44;16.20;99.90
45535;DHT22;35892;48.798;9.698;2022-07-30T02:13:19;16.30;99.90
45535;DHT22;35892;48.798;9.698;2022-07-30T02:16:07;16.30;99.90
45535;DHT22;35892;48.798;9.698;2022-07-30T02:18:54;16.30;99.90
45535;DHT22;35892;48.798;9.698;2022-07-30T02:21:36;16.10;99.90
45535;DHT22;35892;48.798;9.698;2022-07-30T02:24:04;16.10;99.90
45535;DHT22;35892;48.798;9.698;2022-07-30T02:26:36;16.10;99.90
45535;DHT22;35892;48.798;9.698;2022-07-30T02:29:05;16.10;99.90
45535;DHT22;35892;48.798;9.698;2022-07-30T02:31:40;16.10;99.90
45535;DHT22;35892;48.798;9.698;2022-07-30T02:34:11;16.00;99.90
45535;DHT22;35892;48.798;9.698;2022-07-30T02:36:40;15.90;99.90
45535;DHT22;35892;48.798;9.698;2022-07-30T02:39:11;16.00;99.90
45535;DHT22;35892;48.798;9.698;2022-07-30T02:41:39;15.90;99.90
45535;DHT22;35892;48.798;9.698;2022-07-30T02:44:19;15.90;99.90
45535;DHT22;35892;48.798;9.698;2022-07-30T02:46:47;15.80;99.90
45535;DHT22;35892;48.798;9.698;2022-07-30T02:49:19;15.80;99.90
45535;DHT22;35892;48.798;9.698;2022-07-30T02:51:47;15.70;99.90
45535;DHT22;35892;48.798;9.698;2022-07-30T02:54:18;15.60;99.90
45535;DHT22;35892;48.798;9.698;2022-07-30T02:56:49;15.70;99.90
45535;DHT22;35892;48.798;9.698;2022-07-30T02:59:19;15.60;99.90
45535;DHT22;35892;48.798;9.698;2022-07-30T03:01:50;15.70;99.90
45535;DHT22;35892;48.798;9.698;2022-07-30T03:04:23;15.70;99.90
45535;DHT22;35892;48.798;9.698;2022-07-30T03:06:54;15.80;99.90
45535;DHT22;35892;48.798;9.698;2022-07-30T03:09:21;15.80;99.90
45535;DHT22;35892;48.798;9.698;2022-07-30T03:11:52;15.80;99.90
45535;DHT22;35892;48.798;9.698;2022-07-30T03:14:21;15.70;99.90
45535;DHT22;35892;48.798;9.698;2022-07-30T03:16:55;15.60;99.90
45535;DHT22;35892;48.798;9.698;2022-07-30T03:19:30;15.60;99.90
45535;DHT22;35892;48.798;9.698;2022-07-30T03:22:02;15.60;99.90
45535;DHT22;35892;48.798;9.698;2022-07-30T03:24:34;15.50;99.90
45535;DHT22;35892;48.798;9.698;2022-07-30T03:27:03;15.40;99.90
45535;DHT22;35892;48.798;9.698;2022-07-30T03:29:32;15.30;99.90
45535;DHT22;35892;48.798;9.698;2022-07-30T03:32:00;15.30;99.90
45535;DHT22;35892;48.798;9.698;2022-07-30T03:34:34;15.20;99.90
45535;DHT22;35892;48.798;9.698;2022-07-30T03:37:07;15.20;99.90
45535;DHT22;35892;48.798;9.698;2022-07-30T03:39:35;15.20;99.90
45535;DHT22;35892;48.798;9.698;2022-07-30T03:42:07;15.20;99.90
45535;DHT22;35892;48.798;9.698;2022-07-30T03:44:37;15.10;99.90
45535;DHT22;35892;48.798;9.698;2022-07-30T03:47:05;15.10;99.90
45535;DHT22;35892;48.798;9.698;2022-07-30T03:49:34;15.10;99.90
45535;DHT22;35892;48.798;9.698;2022-07-30T03:52:00;15.20;99.90
45535;DHT22;35892;48.798;9.698;2022-07-30T03:54:31;15.20;99.90
45535;DHT22;35892;48.798;9.698;2022-07-30T03:57:03;15.10;99.90
45535;DHT22;35892;48.798;9.698;2022-07-30T03:59:35;15.10;99.90
45535;DHT22;35892;48.798;9.698;2022-07-30T04:02:02;15.10;99.90
45535;DHT22;35892;48.798;9.698;2022-07-30T04:04:33;15.30;99.90
45535;DHT22;35892;48.798;9.698;2022-07-30T04:07:04;15.30;99.90
45535;DHT22;35892;48.798;9.698;2022-07-30T04:09:31;15.30;99.90
45535;DHT22;35892;48.798;9.698;2022-07-30T04:11:58;15.20;99.90
45535;DHT22;35892;48.798;9.698;2022-07-30T04:14:40;15.20;99.90
45535;DHT22;35892;48.798;9.698;2022-07-30T04:17:44;15.20;99.90
45535;DHT22;35892;48.798;9.698;2022-07-30T04:20:12;15.10;99.90
45535;DHT22;35892;48.798;9.698;2022-07-30T04:22:45;15.10;99.90
45535;DHT22;35892;48.798;9.698;2022-07-30T04:25:20;15.10;99.90
45535;DHT22;35892;48.798;9.698;2022-07-30T04:27:53;15.20;99.90
45535;DHT22;35892;48.798;9.698;2022-07-30T04:30:29;15.10;99.90
45535;DHT22;35892;48.798;9.698;2022-07-30T04:33:00;15.10;99.90
45535;DHT22;35892;48.798;9.698;2022-07-30T04:35:32;15.20;99.90
45535;DHT22;35892;48.798;9.698;2022-07-30T04:38:18;15.30;99.90
45535;DHT22;35892;48.798;9.698;2022-07-30T04:40:48;15.20;99.90
45535;DHT22;35892;48.798;9.698;2022-07-30T04:43:17;15.20;99.90
45535;DHT22;35892;48.798;9.698;2022-07-30T04:45:44;15.20;99.90
45535;DHT22;35892;48.798;9.698;2022-07-30T04:48:13;15.20;99.90
45535;DHT22;35892;48.798;9.698;2022-07-30T04:50:43;15.30;99.90
45535;DHT22;35892;48.798;9.698;2022-07-30T04:53:11;15.30;99.90
45535;DHT22;35892;48.798;9.698;2022-07-30T04:55:42;15.40;99.90
45535;DHT22;35892;48.798;9.698;2022-07-30T04:58:17;15.40;99.90
45535;DHT22;35892;48.798;9.698;2022-07-30T05:00:47;15.60;99.90
45535;DHT22;35892;48.798;9.698;2022-07-30T05:03:22;15.70;99.90
45535;DHT22;35892;48.798;9.698;2022-07-30T05:05:49;15.60;99.90
45535;DHT22;35892;48.798;9.698;2022-07-30T05:08:24;15.70;99.90
45535;DHT22;35892;48.798;9.698;2022-07-30T05:10:53;15.70;99.90
45535;DHT22;35892;48.798;9.698;2022-07-30T05:13:20;15.70;99.90
45535;DHT22;35892;48.798;9.698;2022-07-30T05:16:00;15.80;99.90
45535;DHT22;35892;48.798;9.698;2022-07-30T05:18:27;15.80;99.90
45535;DHT22;35892;48.798;9.698;2022-07-30T05:20:54;15.80;99.90
45535;DHT22;35892;48.798;9.698;2022-07-30T05:23:20;15.90;99.90
45535;DHT22;35892;48.798;9.698;2022-07-30T05:25:47;16.00;99.90
45535;DHT22;35892;48.798;9.698;2022-07-30T05:28:16;16.20;99.90
45535;DHT22;35892;48.798;9.698;2022-07-30T05:30:46;16.20;99.90
45535;DHT22;35892;48.798;9.698;2022-07-30T05:33:15;16.20;99.90
45535;DHT22;35892;48.798;9.698;2022-07-30T05:35:42;16.30;99.90
45535;DHT22;35892;48.798;9.698;2022-07-30T05:38:11;16.40;99.90
45535;DHT22;35892;48.798;9.698;2022-07-30T05:40:41;16.40;99.90
45535;DHT22;35892;48.798;9.698;2022-07-30T05:43:07;16.50;99.90
45535;DHT22;35892;48.798;9.698;2022-07-30T05:45:39;16.60;99.90
45535;DHT22;35892;48.798;9.698;2022-07-30T05:48:06;16.60;99.90
45535;DHT22;35892;48.798;9.698;2022-07-30T05:50:33;16.60;99.90
45535;DHT22;35892;48.798;9.698;2022-07-30T05:53:00;16.70;99.90
45535;DHT22;35892;48.798;9.698;2022-07-30T05:55:27;16.80;99.90
45535;DHT22;35892;48.798;9.698;2022-07-30T05:57:54;16.80;99.90
45535;DHT22;35892;48.798;9.698;2022-07-30T06:00:20;16.90;99.90
45535;DHT22;35892;48.798;9.698;2022-07-30T06:02:49;17.00;99.90
45535;DHT22;35892;48.798;9.698;2022-07-30T06:05:19;17.00;99.90
45535;DHT22;35892;48.798;9.698;2022-07-30T06:07:50;17.20;99.90
45535;DHT22;35892;48.798;9.698;2022-07-30T06:10:19;17.30;99.90
45535;DHT22;35892;48.798;9.698;2022-07-30T06:12:49;17.40;99.90
45535;DHT22;35892;48.798;9.698;2022-07-30T06:15:18;17.50;99.90
45535;DHT22;35892;48.798;9.698;2022-07-30T06:17:54;17.70;99.90
45535;DHT22;35892;48.798;9.698;2022-07-30T06:20:28;17.80;99.90
45535;DHT22;35892;48.798;9.698;2022-07-30T06:22:54;17.80;99.90
45535;DHT22;35892;48.798;9.698;2022-07-30T06:25:21;17.90;99.90
45535;DHT22;35892;48.798;9.698;2022-07-30T06:27:48;18.00;99.90
45535;DHT22;35892;48.798;9.698;2022-07-30T06:30:15;18.10;99.90
45535;DHT22;35892;48.798;9.698;2022-07-30T06:32:42;18.20;99.90
45535;DHT22;35892;48.798;9.698;2022-07-30T06:35:14;18.30;99.90
45535;DHT22;35892;48.798;9.698;2022-07-30T06:37:40;18.40;99.90
45535;DHT22;35892;48.798;9.698;2022-07-30T06:40:30;18.50;99.90
45535;DHT22;35892;48.798;9.698;2022-07-30T06:42:57;18.60;99.90
45535;DHT22;35892;48.798;9.698;2022-07-30T06:45:24;18.70;99.90
45535;DHT22;35892;48.798;9.698;2022-07-30T06:47:53;18.80;99.90
45535;DHT22;35892;48.798;9.698;2022-07-30T06:50:24;19.00;99.90
45535;DHT22;35892;48.798;9.698;2022-07-30T06:52:53;19.10;99.90
45535;DHT22;35892;48.798;9.698;2022-07-30T06:55:25;19.20;99.90
45535;DHT22;35892;48.798;9.698;2022-07-30T06:57:52;19.20;99.90
45535;DHT22;35892;48.798;9.698;2022-07-30T07:00:18;19.40;99.90
45535;DHT22;35892;48.798;9.698;2022-07-30T07:02:46;19.50;99.90
45535;DHT22;35892;48.798;9.698;2022-07-30T07:05:15;19.50;99.90
45535;DHT22;35892;48.798;9.698;2022-07-30T07:07:42;19.60;99.90
45535;DHT22;35892;48.798;9.698;2022-07-30T07:10:26;19.60;99.90
45535;DHT22;35892;48.798;9.698;2022-07-30T07:12:58;19.70;99.90
45535;DHT22;35892;48.798;9.698;2022-07-30T07:15:26;19.70;99.90
45535;DHT22;35892;48.798;9.698;2022-07-30T07:18:04;19.90;99.90
45535;DHT22;35892;48.798;9.698;2022-07-30T07:20:33;20.00;99.90
45535;DHT22;35892;48.798;9.698;2022-07-30T07:23:00;20.00;99.90
45535;DHT22;35892;48.798;9.698;2022-07-30T07:25:34;20.10;99.90
45535;DHT22;35892;48.798;9.698;2022-07-30T07:28:01;20.10;99.90
45535;DHT22;35892;48.798;9.698;2022-07-30T07:30:39;20.10;99.90
45535;DHT22;35892;48.798;9.698;2022-07-30T07:33:10;20.20;99.90
45535;DHT22;35892;48.798;9.698;2022-07-30T07:35:41;20.20;99.90
45535;DHT22;35892;48.798;9.698;2022-07-30T07:38:16;20.40;99.90
45535;DHT22;35892;48.798;9.698;2022-07-30T07:40:49;20.40;99.90
45535;DHT22;35892;48.798;9.698;2022-07-30T07:43:15;20.50;99.90
45535;DHT22;35892;48.798;9.698;2022-07-30T07:45:42;20.50;99.90
45535;DHT22;35892;48.798;9.698;2022-07-30T07:48:12;20.50;99.90
45535;DHT22;35892;48.798;9.698;2022-07-30T07:50:39;20.60;99.90
45535;DHT22;35892;48.798;9.698;2022-07-30T07:53:08;20.70;99.90
45535;DHT22;35892;48.798;9.698;2022-07-30T07:55:35;20.80;99.90
45535;DHT22;35892;48.798;9.698;2022-07-30T07:58:02;20.90;99.90
45535;DHT22;35892;48.798;9.698;2022-07-30T08:00:30;20.90;99.90
45535;DHT22;35892;48.798;9.698;2022-07-30T08:02:56;21.00;99.90
45535;DHT22;35892;48.798;9.698;2022-07-30T08:05:28;21.00;99.90
45535;DHT22;35892;48.798;9.698;2022-07-30T08:08:15;21.10;99.90
45535;DHT22;35892;48.798;9.698;2022-07-30T08:10:41;21.10;99.90
45535;DHT22;35892;48.798;9.698;2022-07-30T08:13:08;21.20;97.60
45535;DHT22;35892;48.798;9.698;2022-07-30T08:16:00;21.20;96.90
45535;DHT22;35892;48.798;9.698;2022-07-30T08:18:29;21.30;96.80
45535;DHT22;35892;48.798;9.698;2022-07-30T08:20:56;21.40;95.30
45535;DHT22;35892;48.798;9.698;2022-07-30T08:23:25;21.40;94.90
45535;DHT22;35892;48.798;9.698;2022-07-30T08:25:54;21.40;94.00
45535;DHT22;35892;48.798;9.698;2022-07-30T08:28:22;21.40;94.40
45535;DHT22;35892;48.798;9.698;2022-07-30T08:31:02;21.50;94.20
45535;DHT22;35892;48.798;9.698;2022-07-30T08:33:29;21.60;93.50
45535;DHT22;35892;48.798;9.698;2022-07-30T08:36:01;21.70;92.40
45535;DHT22;35892;48.798;9.698;2022-07-30T08:38:36;21.60;92.50
45535;DHT22;35892;48.798;9.698;2022-07-30T08:41:03;21.70;92.90
45535;DHT22;35892;48.798;9.698;2022-07-30T08:43:30;21.80;91.90
45535;DHT22;35892;48.798;9.698;2022-07-30T08:45:58;22.00;90.10
45535;DHT22;35892;48.798;9.698;2022-07-30T08:48:26;22.00;86.90
45535;DHT22;35892;48.798;9.698;2022-07-30T08:50:54;22.00;86.00
45535;DHT22;35892;48.798;9.698;2022-07-30T08:53:21;22.10;86.20
45535;DHT22;35892;48.798;9.698;2022-07-30T08:55:48;22.10;84.40
45535;DHT22;35892;48.798;9.698;2022-07-30T08:58:35;22.20;88.10
45535;DHT22;35892;48.798;9.698;2022-07-30T09:01:04;22.20;84.50
45535;DHT22;35892;48.798;9.698;2022-07-30T09:03:31;22.30;81.00
45535;DHT22;35892;48.798;9.698;2022-07-30T09:06:02;22.40;79.70
45535;DHT22;35892;48.798;9.698;2022-07-30T09:08:30;22.50;80.40
45535;DHT22;35892;48.798;9.698;2022-07-30T09:10:58;22.70;79.00
45535;DHT22;35892;48.798;9.698;2022-07-30T09:13:33;22.80;80.30
45535;DHT22;35892;48.798;9.698;2022-07-30T09:16:01;23.00;78.30
45535;DHT22;35892;48.798;9.698;2022-07-30T09:18:38;23.00;76.50
45535;DHT22;35892;48.798;9.698;2022-07-30T09:24:09;23.00;76.00
45535;DHT22;35892;48.798;9.698;2022-07-30T09:26:56;23.10;73.40
45535;DHT22;35892;48.798;9.698;2022-07-30T09:29:32;23.10;74.30
45535;DHT22;35892;48.798;9.698;2022-07-30T09:32:06;23.30;73.50
45535;DHT22;35892;48.798;9.698;2022-07-30T09:34:37;23.30;73.70
45535;DHT22;35892;48.798;9.698;2022-07-30T09:39:37;23.50;71.50
45535;DHT22;35892;48.798;9.698;2022-07-30T09:44:47;23.50;71.80
45535;DHT22;35892;48.798;9.698;2022-07-30T09:47:30;23.60;70.80
45535;DHT22;35892;48.798;9.698;2022-07-30T09:50:18;23.60;69.80
45535;DHT22;35892;48.798;9.698;2022-07-30T09:53:06;23.60;70.10
45535;DHT22;35892;48.798;9.698;2022-07-30T09:55:35;23.60;69.40
45535;DHT22;35892;48.798;9.698;2022-07-30T09:58:10;23.70;68.80
45535;DHT22;35892;48.798;9.698;2022-07-30T10:00:43;23.80;69.20
45535;DHT22;35892;48.798;9.698;2022-07-30T10:03:24;23.80;67.90
45535;DHT22;35892;48.798;9.698;2022-07-30T10:06:10;24.00;66.10
45535;DHT22;35892;48.798;9.698;2022-07-30T10:11:14;24.10;65.60
45535;DHT22;35892;48.798;9.698;2022-07-30T10:13:42;24.20;65.60
45535;DHT22;35892;48.798;9.698;2022-07-30T10:16:11;24.10;65.60
45535;DHT22;35892;48.798;9.698;2022-07-30T10:18:41;24.00;64.80
45535;DHT22;35892;48.798;9.698;2022-07-30T10:21:09;24.10;65.20
45535;DHT22;35892;48.798;9.698;2022-07-30T10:23:42;24.30;64.60
45535;DHT22;35892;48.798;9.698;2022-07-30T10:26:11;24.50;63.60
45535;DHT22;35892;48.798;9.698;2022-07-30T10:28:43;24.50;62.10
45535;DHT22;35892;48.798;9.698;2022-07-30T10:31:10;24.40;62.10
45535;DHT22;35892;48.798;9.698;2022-07-30T10:33:57;24.40;62.70
45535;DHT22;35892;48.798;9.698;2022-07-30T10:36:24;24.40;64.10
45535;DHT22;35892;48.798;9.698;2022-07-30T10:38:53;24.50;64.50
45535;DHT22;35892;48.798;9.698;2022-07-30T10:47:20;24.20;62.40
45535;DHT22;35892;48.798;9.698;2022-07-30T10:55:28;24.60;62.20
45535;DHT22;35892;48.798;9.698;2022-07-30T10:58:11;24.70;61.20
45535;DHT22;35892;48.798;9.698;2022-07-30T11:03:28;25.30;59.90
45535;DHT22;35892;48.798;9.698;2022-07-30T11:08:52;25.70;58.60
45535;DHT22;35892;48.798;9.698;2022-07-30T11:14:13;25.50;58.80
45535;DHT22;35892;48.798;9.698;2022-07-30T11:19:12;25.10;57.60
45535;DHT22;35892;48.798;9.698;2022-07-30T11:22:23;25.10;58.10
45535;DHT22;35892;48.798;9.698;2022-07-30T11:24:53;25.10;59.10
45535;DHT22;35892;48.798;9.698;2022-07-30T11:27:39;25.00;59.20
45535;DHT22;35892;48.798;9.698;2022-07-30T11:32:44;25.00;59.00
45535;DHT22;35892;48.798;9.698;2022-07-30T11:35:27;25.00;59.20
45535;DHT22;35892;48.798;9.698;2022-07-30T11:49:03;25.90;55.90
45535;DHT22;35892;48.798;9.698;2022-07-30T11:51:44;26.00;55.30
45535;DHT22;35892;48.798;9.698;2022-07-30T11:54:11;26.20;54.20
45535;DHT22;35892;48.798;9.698;2022-07-30T11:56:52;26.20;54.10
45535;DHT22;35892;48.798;9.698;2022-07-30T11:59:19;26.20;53.80
45535;DHT22;35892;48.798;9.698;2022-07-30T12:01:52;26.30;54.30
45535;DHT22;35892;48.798;9.698;2022-07-30T12:04:22;26.30;54.40
45535;DHT22;35892;48.798;9.698;2022-07-30T12:06:54;26.30;55.00
45535;DHT22;35892;48.798;9.698;2022-07-30T12:09:25;26.50;55.10
45535;DHT22;35892;48.798;9.698;2022-07-30T12:11:56;26.60;53.80
45535;DHT22;35892;48.798;9.698;2022-07-30T12:14:23;26.60;53.80
45535;DHT22;35892;48.798;9.698;2022-07-30T12:16:56;26.60;54.00
45535;DHT22;35892;48.798;9.698;2022-07-30T12:19:25;26.60;53.40
45535;DHT22;35892;48.798;9.698;2022-07-30T12:21:52;26.40;53.00
45535;DHT22;35892;48.798;9.698;2022-07-30T12:24:24;26.50;54.30
45535;DHT22;35892;48.798;9.698;2022-07-30T12:26:52;26.50;53.50
45535;DHT22;35892;48.798;9.698;2022-07-30T12:29:30;26.50;53.70
45535;DHT22;35892;48.798;9.698;2022-07-30T12:31:57;26.50;53.80
45535;DHT22;35892;48.798;9.698;2022-07-30T12:34:25;26.50;52.70
45535;DHT22;35892;48.798;9.698;2022-07-30T12:36:53;26.50;53.00
45535;DHT22;35892;48.798;9.698;2022-07-30T12:39:22;26.60;53.00
45535;DHT22;35892;48.798;9.698;2022-07-30T12:41:53;26.70;51.80
45535;DHT22;35892;48.798;9.698;2022-07-30T12:44:52;26.60;51.20
45535;DHT22;35892;48.798;9.698;2022-07-30T12:49:47;26.30;51.20
45535;DHT22;35892;48.798;9.698;2022-07-30T12:57:49;26.40;52.50
45535;DHT22;35892;48.798;9.698;2022-07-30T13:00:14;26.70;51.60
45535;DHT22;35892;48.798;9.698;2022-07-30T13:02:41;26.80;51.10
45535;DHT22;35892;48.798;9.698;2022-07-30T13:05:13;26.80;50.70
45535;DHT22;35892;48.798;9.698;2022-07-30T13:07:56;26.70;51.60
45535;DHT22;35892;48.798;9.698;2022-07-30T13:10:24;26.70;50.70
45535;DHT22;35892;48.798;9.698;2022-07-30T13:12:56;26.70;49.90
45535;DHT22;35892;48.798;9.698;2022-07-30T13:15:24;27.00;50.00
45535;DHT22;35892;48.798;9.698;2022-07-30T13:17:53;27.10;50.00
45535;DHT22;35892;48.798;9.698;2022-07-30T13:20:20;27.10;49.40
45535;DHT22;35892;48.798;9.698;2022-07-30T13:22:47;26.90;49.50
45535;DHT22;35892;48.798;9.698;2022-07-30T13:25:16;26.60;50.20
45535;DHT22;35892;48.798;9.698;2022-07-30T13:27:43;26.60;51.70
45535;DHT22;35892;48.798;9.698;2022-07-30T13:30:10;26.60;50.60
45535;DHT22;35892;48.798;9.698;2022-07-30T13:32:37;26.70;50.90
45535;DHT22;35892;48.798;9.698;2022-07-30T13:35:04;26.70;50.00
45535;DHT22;35892;48.798;9.698;2022-07-30T13:37:31;26.70;50.60
45535;DHT22;35892;48.798;9.698;2022-07-30T13:40:04;26.80;51.00
45535;DHT22;35892;48.798;9.698;2022-07-30T13:42:32;26.90;50.00
45535;DHT22;35892;48.798;9.698;2022-07-30T13:44:59;26.90;50.10
45535;DHT22;35892;48.798;9.698;2022-07-30T13:47:27;27.00;50.70
45535;DHT22;35892;48.798;9.698;2022-07-30T13:49:54;27.00;50.80
45535;DHT22;35892;48.798;9.698;2022-07-30T13:52:21;27.10;50.90
45535;DHT22;35892;48.798;9.698;2022-07-30T13:54:48;27.00;51.10
45535;DHT22;35892;48.798;9.698;2022-07-30T13:57:21;27.00;50.20
45535;DHT22;35892;48.798;9.698;2022-07-30T13:59:48;27.00;50.20
45535;DHT22;35892;48.798;9.698;2022-07-30T14:02:14;27.00;50.30
45535;DHT22;35892;48.798;9.698;2022-07-30T14:04:41;27.00;50.60
45535;DHT22;35892;48.798;9.698;2022-07-30T14:07:08;27.00;50.80
45535;DHT22;35892;48.798;9.698;2022-07-30T14:09:35;27.00;50.40
45535;DHT22;35892;48.798;9.698;2022-07-30T14:12:12;27.10;50.30
45535;DHT22;35892;48.798;9.698;2022-07-30T14:14:41;27.10;49.90
45535;DHT22;35892;48.798;9.698;2022-07-30T14:17:08;27.10;50.60
45535;DHT22;35892;48.798;9.698;2022-07-30T14:19:38;27.10;49.70
45535;DHT22;35892;48.798;9.698;2022-07-30T14:22:04;27.30;50.10
45535;DHT22;35892;48.798;9.698;2022-07-30T14:24:31;27.40;50.50
45535;DHT22;35892;48.798;9.698;2022-07-30T14:26:58;27.50;50.10
45535;DHT22;35892;48.798;9.698;2022-07-30T14:29:26;27.50;49.10
45535;DHT22;35892;48.798;9.698;2022-07-30T14:31:56;27.40;48.40
45535;DHT22;35892;48.798;9.698;2022-07-30T14:34:22;27.40;49.00
45535;DHT22;35892;48.798;9.698;2022-07-30T14:36:51;27.50;48.60
45535;DHT22;35892;48.798;9.698;2022-07-30T14:39:18;27.40;48.90
45535;DHT22;35892;48.798;9.698;2022-07-30T14:41:46;27.70;48.50
45535;DHT22;35892;48.798;9.698;2022-07-30T14:44:15;27.70;48.70
45535;DHT22;35892;48.798;9.698;2022-07-30T14:46:42;27.80;49.10
45535;DHT22;35892;48.798;9.698;2022-07-30T14:49:18;27.80;48.40
45535;DHT22;35892;48.798;9.698;2022-07-30T14:51:45;28.00;48.40
45535;DHT22;35892;48.798;9.698;2022-07-30T14:54:17;28.10;47.60
45535;DHT22;35892;48.798;9.698;2022-07-30T14:56:44;28.10;47.50
45535;DHT22;35892;48.798;9.698;2022-07-30T14:59:11;28.10;48.40
45535;DHT22;35892;48.798;9.698;2022-07-30T15:01:40;28.20;47.80
45535;DHT22;35892;48.798;9.698;2022-07-30T15:04:07;28.30;47.50
45535;DHT22;35892;48.798;9.698;2022-07-30T15:06:36;28.20;47.70
45535;DHT22;35892;48.798;9.698;2022-07-30T15:09:03;28.20;47.90
45535;DHT22;35892;48.798;9.698;2022-07-30T15:11:30;28.10;47.50
45535;DHT22;35892;48.798;9.698;2022-07-30T15:14:17;28.10;47.60
45535;DHT22;35892;48.798;9.698;2022-07-30T15:16:46;28.10;47.00
45535;DHT22;35892;48.798;9.698;2022-07-30T15:19:13;28.10;47.50
45535;DHT22;35892;48.798;9.698;2022-07-30T15:21:41;28.30;46.60
45535;DHT22;35892;48.798;9.698;2022-07-30T15:24:12;28.20;47.80
45535;DHT22;35892;48.798;9.698;2022-07-30T15:26:42;28.20;46.90
45535;DHT22;35892;48.798;9.698;2022-07-30T15:29:09;28.20;46.90
45535;DHT22;35892;48.798;9.698;2022-07-30T15:31:41;28.30;46.60
45535;DHT22;35892;48.798;9.698;2022-07-30T15:34:11;28.30;47.10
45535;DHT22;35892;48.798;9.698;2022-07-30T15:36:40;28.20;46.70
45535;DHT22;35892;48.798;9.698;2022-07-30T15:39:07;28.10;46.30
45535;DHT22;35892;48.798;9.698;2022-07-30T15:41:35;28.10;46.70
45535;DHT22;35892;48.798;9.698;2022-07-30T15:44:02;28.10;47.20
45535;DHT22;35892;48.798;9.698;2022-07-30T15:46:29;28.10;47.50
45535;DHT22;35892;48.798;9.698;2022-07-30T15:48:56;28.20;47.00
45535;DHT22;35892;48.798;9.698;2022-07-30T15:51:25;28.70;46.50
45535;DHT22;35892;48.798;9.698;2022-07-30T15:53:53;28.80;46.30
45535;DHT22;35892;48.798;9.698;2022-07-30T15:56:20;28.60;46.40
45535;DHT22;35892;48.798;9.698;2022-07-30T15:58:49;28.40;46.70
45535;DHT22;35892;48.798;9.698;2022-07-30T16:01:16;28.40;47.00
45535;DHT22;35892;48.798;9.698;2022-07-30T16:03:43;29.00;46.30
45535;DHT22;35892;48.798;9.698;2022-07-30T16:06:10;29.60;45.40
45535;DHT22;35892;48.798;9.698;2022-07-30T16:08:40;31.20;43.40
45535;DHT22;35892;48.798;9.698;2022-07-30T16:11:06;32.60;40.70
45535;DHT22;35892;48.798;9.698;2022-07-30T16:13:36;33.80;38.60
45535;DHT22;35892;48.798;9.698;2022-07-30T16:16:03;34.50;38.30
45535;DHT22;35892;48.798;9.698;2022-07-30T16:18:30;34.30;37.10
45535;DHT22;35892;48.798;9.698;2022-07-30T16:20:57;34.40;37.40
45535;DHT22;35892;48.798;9.698;2022-07-30T16:23:29;34.80;35.90
45535;DHT22;35892;48.798;9.698;2022-07-30T16:26:02;34.80;35.30
45535;DHT22;35892;48.798;9.698;2022-07-30T16:28:33;34.50;35.90
45535;DHT22;35892;48.798;9.698;2022-07-30T16:31:01;35.10;35.60
45535;DHT22;35892;48.798;9.698;2022-07-30T16:33:27;35.30;35.50
45535;DHT22;35892;48.798;9.698;2022-07-30T16:35:56;35.50;35.40
45535;DHT22;35892;48.798;9.698;2022-07-30T16:38:24;35.00;35.60
45535;DHT22;35892;48.798;9.698;2022-07-30T16:40:51;35.20;35.60
45535;DHT22;35892;48.798;9.698;2022-07-30T16:43:18;35.90;34.40
45535;DHT22;35892;48.798;9.698;2022-07-30T16:45:48;35.90;34.70
45535;DHT22;35892;48.798;9.698;2022-07-30T16:48:17;36.30;34.10
45535;DHT22;35892;48.798;9.698;2022-07-30T16:50:44;36.50;33.60
45535;DHT22;35892;48.798;9.698;2022-07-30T16:53:11;35.40;34.10
45535;DHT22;35892;48.798;9.698;2022-07-30T16:55:41;33.80;36.60